スィクティフカル の空港の天気 - METARとTAF

Syktyvkar ( UUYY / SCW ) - ロシア スィクティフカル
飛行場実況気象(Metar)
観測時間01/23 07:00 MSK (01/23 04:00 UTC)
風向・風速南南東 4m/s
視程10km以上
天気現象
全天の8割程度の雲 雲底高度 980m
気温-13℃
湿度85%
気圧1029hPa
METARUUYY 230400Z 15004MPS 9999 BKN032 M13/M15 Q1029 R19/450247 NOSIG RMK QFE763/1018
過去の天気等 Google飛行場航空写真 Wunderground天気予報

過去48時間のMETAR

飛行場予報(TAF)
発表時間: 1/23 05:00 MSK (1/23 02:00 UTC)
予報対象時間: 23日6時 MSK ~ 24日6時 MSK
風向・風速南南東 5m/s 瞬間風速 10m/s
視程3,100m
天気現象弱いしゅう雪
全天の8割程度の雲 雲底高度 340m
全天の8割程度の積乱雲 雲底高度 460m
23日6時 MSK ~ 23日9時 MSK に一時的に
視程1,000m
天気現象しゅう雪
全天の8割程度の雲 雲底高度 210m
全天の8割程度の積乱雲 雲底高度 370m
23日12時 MSK ~ 23日14時 MSK に徐々に
風向・風速南東 3m/s 瞬間風速 8m/s
23日21時 MSK ~ 24日6時 MSK に一時的に
視程1,000m
天気現象しゅう雪 もや
全天の8割程度の雲 雲底高度 210m
全天の8割程度の積乱雲 雲底高度 370m
TAF UUYY 230200Z 2303/2403 15005G10MPS 3100 -SHSN BKN011 BKN015CB
TEMPO 2303/2306 1000 SHSN BKN007 BKN012CB
BECMG 2309/2311 14003G08MPS
TEMPO 2318/2403 1000 SHSN BR BKN007 BKN012CB